createdAt,value
2023-05-11T04:01:26.527Z,59.68
2023-05-11T04:04:32.691Z,60.64
2023-05-11T04:07:37.382Z,60.87
2023-05-11T04:10:39.788Z,62.54
2023-05-11T04:13:42.228Z,64.50
2023-05-11T04:16:45.022Z,65.07
2023-05-11T04:19:47.132Z,65.48
2023-05-11T04:22:49.491Z,64.75
2023-05-11T04:25:55.439Z,64.07
2023-05-11T04:28:57.899Z,62.44
2023-05-11T04:32:00.065Z,61.50
2023-05-11T04:35:03.141Z,63.15
2023-05-11T04:38:06.053Z,63.57
2023-05-11T04:41:08.945Z,63.97
2023-05-11T04:44:11.678Z,61.44
2023-05-11T04:47:15.413Z,60.41
2023-05-11T04:50:17.926Z,59.26
2023-05-11T04:53:20.627Z,58.60
2023-05-11T04:56:25.532Z,56.67
2023-05-11T04:59:28.563Z,54.85
2023-05-11T05:02:30.931Z,54.74
2023-05-11T05:05:33.386Z,54.20
2023-05-11T05:08:35.467Z,54.11
2023-05-11T05:11:38.026Z,53.12
2023-05-11T05:14:40.214Z,53.10
2023-05-11T05:17:43.218Z,53.02
2023-05-11T05:20:45.471Z,53.60
2023-05-11T05:23:47.898Z,52.85
2023-05-11T05:26:50.082Z,53.19
2023-05-11T05:29:52.510Z,52.57
2023-05-11T05:32:54.989Z,52.57
2023-05-11T05:35:57.416Z,52.61
2023-05-11T05:38:59.669Z,53.03
2023-05-11T05:42:03.102Z,52.23
2023-05-11T05:45:05.757Z,50.89
2023-05-11T05:48:09.705Z,50.60
2023-05-11T05:51:11.965Z,51.46
2023-05-11T05:54:14.641Z,51.15
2023-05-11T05:57:16.937Z,53.19
2023-05-11T06:00:20.536Z,50.96
2023-05-11T06:03:23.996Z,52.43
2023-05-11T06:06:27.182Z,51.04
2023-05-11T06:09:29.604Z,51.54
2023-05-11T06:12:31.831Z,52.32
2023-05-11T06:15:34.379Z,50.59
2023-05-11T06:18:38.350Z,52.75
2023-05-11T06:21:42.925Z,51.80
2023-05-11T06:24:45.167Z,51.94
2023-05-11T06:27:47.780Z,52.99
2023-05-11T06:30:50.511Z,52.00
2023-05-11T06:33:53.827Z,51.74
2023-05-11T06:36:59.379Z,51.84
2023-05-11T06:40:02.020Z,52.06
2023-05-11T06:43:04.250Z,51.37
2023-05-11T06:46:18.634Z,50.64
2023-05-11T06:49:21.491Z,51.30
2023-05-11T06:52:23.954Z,52.17
2023-05-11T06:55:27.771Z,52.04
2023-05-11T06:58:30.317Z,51.64
2023-05-11T07:01:32.766Z,51.58
2023-05-11T07:04:35.254Z,50.21
2023-05-11T07:07:37.416Z,50.23
2023-05-11T07:10:41.556Z,49.98
2023-05-11T07:13:45.202Z,47.80
2023-05-11T07:16:47.945Z,54.13
2023-05-11T07:19:52.276Z,50.29
2023-05-11T07:23:00.439Z,48.75
2023-05-11T07:26:05.122Z,49.56
2023-05-11T07:29:07.547Z,48.88
2023-05-11T07:32:09.689Z,47.92
2023-05-11T07:35:12.072Z,46.97
2023-05-11T07:38:14.161Z,47.09
2023-05-11T07:41:18.012Z,46.28
2023-05-11T07:44:20.264Z,45.19
2023-05-11T07:47:23.417Z,45.95
2023-05-11T07:50:25.920Z,46.38
2023-05-11T07:53:28.670Z,45.29
2023-05-11T07:56:30.881Z,45.62
2023-05-11T07:59:33.418Z,46.21
2023-05-11T08:02:35.680Z,44.74
2023-05-11T08:05:38.277Z,44.98
2023-05-11T08:08:40.755Z,45.03
2023-05-11T08:11:43.284Z,45.16
2023-05-11T08:14:47.683Z,44.52
2023-05-11T08:17:50.225Z,44.80
2023-05-11T08:20:53.770Z,46.62
2023-05-11T08:23:56.171Z,44.94
2023-05-11T08:26:58.281Z,44.22
2023-05-11T08:30:03.846Z,44.54
2023-05-11T08:33:22.873Z,42.35
2023-05-11T08:36:28.507Z,45.24
2023-05-11T08:39:46.080Z,44.94
2023-05-11T08:42:52.193Z,41.78
2023-05-11T08:46:00.861Z,40.94
2023-05-11T08:49:03.563Z,42.98
2023-05-11T08:52:07.852Z,42.38
2023-05-11T08:55:10.791Z,42.15
2023-05-11T08:58:19.320Z,41.85
2023-05-11T09:01:23.596Z,43.70
2023-05-11T09:04:26.574Z,43.95
2023-05-11T09:07:29.719Z,41.97
2023-05-11T09:10:32.495Z,39.70
2023-05-11T09:13:35.494Z,41.21
2023-05-11T09:16:37.969Z,41.87
2023-05-11T09:20:00.959Z,41.33
2023-05-11T09:23:03.121Z,40.88
2023-05-11T09:26:14.259Z,40.64
2023-05-11T09:29:19.696Z,40.29
2023-05-11T09:32:22.661Z,40.00
2023-05-11T09:35:29.051Z,39.83
2023-05-11T09:38:32.563Z,40.79
2023-05-11T09:41:35.669Z,39.52
2023-05-11T09:44:38.834Z,40.53
2023-05-11T09:47:41.026Z,39.91
2023-05-11T09:50:43.788Z,37.82
2023-05-11T09:53:46.441Z,38.31
2023-05-11T09:56:54.554Z,37.30
2023-05-11T09:59:58.993Z,37.82
2023-05-11T10:03:05.734Z,37.00
2023-05-11T10:06:08.297Z,36.81
2023-05-11T10:09:10.702Z,36.77
2023-05-11T10:12:13.739Z,35.04
2023-05-11T10:15:18.648Z,34.70
2023-05-11T10:18:21.373Z,35.81
2023-05-11T10:21:23.690Z,36.17
2023-05-11T10:24:27.145Z,35.44
2023-05-11T10:27:29.311Z,36.77
2023-05-11T10:30:33.215Z,36.20
2023-05-11T10:33:36.504Z,35.70
2023-05-11T10:36:39.037Z,35.31
2023-05-11T10:39:42.624Z,34.75
2023-05-11T10:43:10.127Z,33.82
2023-05-11T10:46:30.565Z,33.63
2023-05-11T10:49:40.212Z,35.33
2023-05-11T10:53:08.868Z,35.00
2023-05-11T10:56:36.155Z,33.91
2023-05-11T11:00:14.081Z,34.07
2023-05-11T11:03:16.686Z,34.13
2023-05-11T11:06:23.878Z,33.19
2023-05-11T11:09:26.796Z,33.28
2023-05-11T11:12:29.958Z,32.10
2023-05-11T11:15:54.295Z,31.54
2023-05-11T11:19:30.767Z,28.68
2023-05-11T11:22:36.533Z,29.88
2023-05-11T11:25:53.931Z,28.63
2023-05-11T11:29:02.352Z,29.03
2023-05-11T11:32:19.853Z,30.01
2023-05-11T11:35:44.833Z,30.32
2023-05-11T11:39:04.034Z,29.76
2023-05-11T11:42:14.497Z,28.76
2023-05-11T11:45:31.434Z,26.75
2023-05-11T11:48:36.351Z,28.87
2023-05-11T11:51:40.423Z,29.45
2023-05-11T11:54:46.367Z,30.62
2023-05-11T11:57:51.373Z,29.62
2023-05-11T12:00:54.391Z,30.05
2023-05-11T12:04:13.794Z,29.72
2023-05-11T12:07:21.374Z,28.54
2023-05-11T12:10:23.985Z,27.91
2023-05-11T12:13:26.303Z,26.38
2023-05-11T12:16:29.594Z,26.15
2023-05-11T12:19:31.795Z,26.35
2023-05-11T12:22:36.631Z,26.07
2023-05-11T12:25:38.914Z,25.79
2023-05-11T12:28:41.347Z,25.40
2023-05-11T12:31:45.951Z,25.74
2023-05-11T12:34:58.220Z,26.78
2023-05-11T12:38:02.360Z,27.21
2023-05-11T12:41:05.931Z,28.07
2023-05-11T12:44:08.197Z,27.23
2023-05-11T12:47:11.060Z,27.49
2023-05-11T12:50:17.802Z,27.33
2023-05-11T12:53:22.267Z,28.36
2023-05-11T12:56:24.390Z,26.44
2023-05-11T12:59:40.809Z,26.21
2023-05-11T13:02:54.717Z,25.60
2023-05-11T13:06:11.554Z,26.54
2023-05-11T13:09:22.815Z,26.72
2023-05-11T13:12:25.867Z,27.38
2023-05-11T13:15:29.452Z,26.72
2023-05-11T13:18:31.933Z,27.97
2023-05-11T13:21:34.154Z,28.47
2023-05-11T13:24:36.606Z,27.99
2023-05-11T13:27:38.693Z,28.40
2023-05-11T13:30:41.590Z,28.19
2023-05-11T13:33:43.762Z,27.44
2023-05-11T13:36:46.991Z,29.08
2023-05-11T13:39:49.088Z,30.31
2023-05-11T13:42:51.681Z,29.46
2023-05-11T13:45:53.798Z,30.50
2023-05-11T13:52:22.382Z,31.89
2023-05-11T13:55:25.104Z,32.29
2023-05-11T13:58:27.223Z,31.95
2023-05-11T14:01:29.727Z,32.04
2023-05-11T14:04:32.177Z,32.29
2023-05-11T14:07:46.486Z,31.63
2023-05-11T14:10:50.554Z,31.72
2023-05-11T14:13:53.140Z,31.69
2023-05-11T14:16:56.238Z,32.77
2023-05-11T14:19:58.367Z,32.52
2023-05-11T14:23:00.825Z,30.84
2023-05-11T14:26:03.848Z,31.11
2023-05-11T14:29:06.292Z,31.67
2023-05-11T14:32:09.021Z,30.96
2023-05-11T14:35:11.671Z,31.05
2023-05-11T14:38:13.758Z,31.51
2023-05-11T14:41:16.377Z,32.21
2023-05-11T14:44:18.497Z,32.79
2023-05-11T14:47:21.298Z,32.18
2023-05-11T14:50:23.377Z,32.32
2023-05-11T14:53:25.737Z,33.16
2023-05-11T14:56:27.911Z,32.67
2023-05-11T14:59:30.976Z,33.51
2023-05-11T15:02:33.176Z,33.37
2023-05-11T15:05:35.964Z,33.06
2023-05-11T15:08:38.156Z,34.04
2023-05-11T15:11:40.572Z,33.98
2023-05-11T15:14:42.740Z,34.37
2023-05-11T15:17:45.263Z,34.53
2023-05-11T15:20:47.381Z,35.61
2023-05-11T15:23:49.900Z,35.15
2023-05-11T15:26:52.040Z,34.34
2023-05-11T15:29:54.423Z,34.73
2023-05-11T15:32:56.551Z,34.80
2023-05-11T15:35:58.992Z,34.88
2023-05-11T15:39:01.249Z,34.67
